Time;durP1;ratioP1;P1;durP2;ratioP2;P2;SDS_P1;SDS_P2;PMS_P1;PMS_P2;Temp;Humidity;BMP_temperature;BMP_pressure;BME280_temperature;BME280_humidity;BME280_pressure;Samples;Min_cycle;Max_cycle;Signal;HPM_P1;HPM_P2
2022/04/30 00:01:40;;;;;;;14.50;10.30;;;10.60;99.90;;;;;;4867385;29;20134;-92
2022/04/30 00:04:42;;;;;;;14.88;10.85;;;10.50;99.90;;;;;;4864466;29;20104;-91
2022/04/30 00:08:06;;;;;;;;;;;;;;;;;;;;;
2022/04/30 00:11:40;;;;;;;;;;;;;;;;;;;;;
2022/04/30 00:15:08;;;;;;;;;;;;;;;;;;;;;
2022/04/30 00:18:26;;;;;;;16.25;10.57;;;10.50;99.90;;;;;;4922299;29;20044;-91
2022/04/30 00:21:38;;;;;;;14.27;10.55;;;10.50;99.90;;;;;;4932043;29;20385;-91
2022/04/30 00:24:49;;;;;;;15.23;9.95;;;10.60;99.90;;;;;;4902300;29;20144;-91
2022/04/30 00:27:37;;;;;;;12.50;9.90;;;10.60;99.90;;;;;;4913640;29;20178;-92
2022/04/30 00:30:43;;;;;;;;;;;;;;;;;;;;;
2022/04/30 00:33:31;;;;;;;14.80;10.40;;;10.50;99.90;;;;;;4929184;29;20048;-91
2022/04/30 00:36:18;;;;;;;14.00;9.98;;;10.50;99.90;;;;;;4965902;28;20070;-89
2022/04/30 00:39:05;;;;;;;12.95;9.18;;;10.50;99.90;;;;;;4975721;28;20058;-86
2022/04/30 00:41:57;;;;;;;11.57;9.38;;;10.60;99.90;;;;;;5009540;28;20081;-90
2022/04/30 00:44:47;;;;;;;13.65;8.88;;;10.70;99.90;;;;;;4990462;28;20057;-89
2022/04/30 00:47:37;;;;;;;11.77;8.65;;;10.80;99.90;;;;;;5024056;28;20037;-87
2022/04/30 00:50:30;;;;;;;13.93;9.98;;;10.90;99.90;;;;;;5011136;28;20124;-90
2022/04/30 00:53:21;;;;;;;13.63;9.18;;;10.80;99.90;;;;;;4993659;28;20065;-88
2022/04/30 00:56:12;;;;;;;15.77;9.48;;;10.80;99.90;;;;;;5006499;28;20102;-89
2022/04/30 00:59:06;;;;;;;14.18;9.57;;;10.70;99.90;;;;;;5006470;28;20050;-87
2022/04/30 01:01:59;;;;;;;16.42;10.55;;;10.70;99.90;;;;;;5008753;28;20050;-89
2022/04/30 01:04:47;;;;;;;20.33;12.60;;;10.60;99.90;;;;;;4996239;28;20046;-88
2022/04/30 01:07:36;;;;;;;18.77;13.52;;;10.60;99.90;;;;;;4989728;28;20058;-88
2022/04/30 01:10:24;;;;;;;22.35;14.63;;;10.50;99.90;;;;;;4996607;28;20407;-88
2022/04/30 01:13:22;;;;;;;23.27;15.80;;;10.40;99.90;;;;;;4987694;28;20436;-89
2022/04/30 01:16:30;;;;;;;26.65;17.45;;;10.30;99.90;;;;;;4994293;28;20371;-87
2022/04/30 01:20:04;;;;;;;23.27;13.57;;;10.20;99.90;;;;;;5010043;28;20059;-87
2022/04/30 01:23:09;;;;;;;33.85;19.75;;;10.20;99.90;;;;;;4986196;28;20101;-87
2022/04/30 01:26:02;;;;;;;35.13;21.05;;;10.10;99.90;;;;;;4986786;28;20046;-88
2022/04/30 01:28:57;;;;;;;38.60;22.50;;;10.10;99.90;;;;;;4974352;28;20047;-87
2022/04/30 01:38:29;;;;;;;41.28;24.38;;;10.10;99.90;;;;;;4993311;28;20156;-85
2022/04/30 01:41:30;;;;;;;43.33;25.73;;;10.10;99.90;;;;;;4996976;28;20038;-87
2022/04/30 01:44:19;;;;;;;39.72;25.13;;;10.10;99.90;;;;;;4988362;28;20046;-88
2022/04/30 01:47:12;;;;;;;45.05;26.05;;;10.00;99.90;;;;;;4992637;28;20062;-87
2022/04/30 01:50:04;;;;;;;43.10;25.73;;;10.10;99.90;;;;;;4991238;28;20150;-86
2022/04/30 01:52:54;;;;;;;37.75;24.83;;;10.10;99.90;;;;;;4980700;28;20141;-90
2022/04/30 01:55:44;;;;;;;38.40;24.45;;;10.00;99.90;;;;;;4979335;28;20051;-89
2022/04/30 01:58:40;;;;;;;41.28;25.40;;;10.10;99.90;;;;;;4989080;28;20360;-89
2022/04/30 02:01:27;;;;;;;39.10;23.63;;;10.10;99.90;;;;;;4976403;28;20043;-89
2022/04/30 02:04:20;;;;;;;39.88;23.77;;;10.00;99.90;;;;;;4988396;28;20065;-87
2022/04/30 02:07:10;;;;;;;36.47;21.83;;;10.00;99.90;;;;;;4992367;28;20528;-89
2022/04/30 02:10:02;;;;;;;43.00;22.73;;;10.00;99.90;;;;;;4976752;28;20050;-87
2022/04/30 02:12:50;;;;;;;31.90;22.15;;;10.00;99.90;;;;;;4995517;28;20786;-88
2022/04/30 02:15:41;;;;;;;34.45;20.90;;;10.00;99.90;;;;;;4981128;28;20057;-89
2022/04/30 02:18:31;;;;;;;32.80;20.85;;;10.00;99.90;;;;;;4990147;28;20066;-88
2022/04/30 02:21:21;;;;;;;30.10;21.08;;;9.90;99.90;;;;;;4985508;28;20436;-87
2022/04/30 02:24:11;;;;;;;29.73;20.35;;;9.90;99.90;;;;;;4985822;28;20367;-87
2022/04/30 02:27:04;;;;;;;32.75;20.90;;;9.90;99.90;;;;;;4981385;28;20065;-88
2022/04/30 02:29:52;;;;;;;32.45;20.25;;;9.80;99.90;;;;;;4995337;28;20046;-86
2022/04/30 02:33:03;;;;;;;32.78;20.88;;;9.80;99.90;;;;;;5078465;28;20095;-86
2022/04/30 02:35:50;;;;;;;34.10;20.42;;;9.80;99.90;;;;;;5083960;28;20043;-88
2022/04/30 02:38:37;;;;;;;34.75;20.60;;;9.80;99.90;;;;;;5069122;28;20048;-88
2022/04/30 02:41:26;;;;;;;32.83;20.83;;;9.70;99.90;;;;;;5098225;28;20421;-87
2022/04/30 02:44:17;;;;;;;30.77;21.02;;;9.70;99.90;;;;;;5077372;28;20043;-87
2022/04/30 02:47:07;;;;;;;34.17;22.13;;;9.70;99.90;;;;;;5081477;28;20098;-87
2022/04/30 02:49:55;;;;;;;33.03;21.98;;;9.70;99.90;;;;;;5080647;28;20040;-90
2022/04/30 02:52:45;;;;;;;37.72;23.60;;;9.70;99.90;;;;;;5083810;28;20066;-88
2022/04/30 02:55:36;;;;;;;34.65;22.73;;;9.70;99.90;;;;;;5088219;28;20040;-87
2022/04/30 03:01:36;;;;;;;45.08;26.00;;;9.70;99.90;;;;;;5100253;28;20043;-88
2022/04/30 03:04:28;;;;;;;44.78;26.40;;;9.70;99.90;;;;;;5084292;28;20048;-85
2022/04/30 03:07:19;;;;;;;40.70;25.85;;;9.70;99.90;;;;;;5079712;28;20032;-89
2022/04/30 03:10:06;;;;;;;43.58;25.92;;;9.70;99.90;;;;;;5095328;28;20437;-87
2022/04/30 03:12:54;;;;;;;46.17;26.38;;;9.60;99.90;;;;;;5102331;28;20040;-86
2022/04/30 03:15:44;;;;;;;48.28;29.20;;;9.60;99.90;;;;;;5061184;28;20138;-86
2022/04/30 03:21:47;;;;;;;50.35;30.52;;;9.60;99.90;;;;;;5080836;28;20048;-87
2022/04/30 03:24:34;;;;;;;52.10;31.90;;;9.60;99.90;;;;;;5079067;28;20056;-87
2022/04/30 03:27:22;;;;;;;55.25;32.50;;;9.60;99.90;;;;;;5093994;28;20113;-87
2022/04/30 03:30:11;;;;;;;54.08;32.90;;;9.50;99.90;;;;;;5092861;28;20044;-86
2022/04/30 03:33:01;;;;;;;58.17;31.80;;;9.50;99.90;;;;;;5094598;28;20056;-87
2022/04/30 03:35:50;;;;;;;57.63;33.03;;;9.50;99.90;;;;;;5110633;28;20480;-87
2022/04/30 03:38:38;;;;;;;50.50;31.63;;;9.50;99.90;;;;;;5110365;28;20040;-87
2022/04/30 03:41:26;;;;;;;56.60;32.58;;;9.50;99.90;;;;;;5094715;28;20036;-88
2022/04/30 03:44:16;;;;;;;48.10;29.85;;;9.50;99.90;;;;;;5090966;28;20101;-87
2022/04/30 03:47:05;;;;;;;48.20;30.13;;;9.50;99.90;;;;;;5086785;28;20063;-87
2022/04/30 03:50:00;;;;;;;50.28;29.90;;;9.50;99.90;;;;;;5089928;28;20075;-85
2022/04/30 03:52:47;;;;;;;50.33;32.25;;;9.50;99.90;;;;;;5088114;28;20056;-88
2022/04/30 03:55:35;;;;;;;59.45;32.65;;;9.40;99.90;;;;;;5083990;28;20040;-86
2022/04/30 03:58:25;;;;;;;50.90;31.73;;;9.40;99.90;;;;;;5085903;28;20040;-87
2022/04/30 04:01:13;;;;;;;59.05;35.45;;;9.40;99.90;;;;;;5067503;28;20044;-88
2022/04/30 04:04:02;;;;;;;60.65;36.05;;;9.40;99.90;;;;;;5108973;28;20372;-85
2022/04/30 04:06:50;;;;;;;56.50;33.88;;;9.30;99.90;;;;;;5089028;28;20159;-89
2022/04/30 04:09:37;;;;;;;70.55;37.60;;;9.30;99.90;;;;;;5080821;28;20048;-85
2022/04/30 04:12:27;;;;;;;65.20;37.65;;;9.30;99.90;;;;;;5097752;28;20131;-88
2022/04/30 04:18:23;;;;;;;70.63;41.28;;;9.30;99.90;;;;;;5077704;28;20072;-87
2022/04/30 04:21:12;;;;;;;82.72;45.38;;;9.20;99.90;;;;;;5088976;28;20474;-88
2022/04/30 04:27:07;;;;;;;81.68;47.85;;;9.10;99.90;;;;;;5105217;28;20047;-87
2022/04/30 04:29:57;;;;;;;86.18;50.00;;;9.10;99.90;;;;;;5107978;28;20520;-87
2022/04/30 04:32:45;;;;;;;89.47;50.08;;;9.00;99.90;;;;;;5063791;28;20056;-88
2022/04/30 04:35:32;;;;;;;91.32;51.38;;;9.00;99.90;;;;;;5092671;28;20070;-87
2022/04/30 04:38:20;;;;;;;96.88;53.55;;;9.00;99.90;;;;;;5073492;28;20102;-87
2022/04/30 04:41:08;;;;;;;101.60;54.70;;;9.00;99.90;;;;;;5070881;28;20040;-87
2022/04/30 04:43:56;;;;;;;102.72;54.20;;;9.00;99.90;;;;;;5080684;28;20048;-86
2022/04/30 04:46:43;;;;;;;95.22;55.55;;;8.90;99.90;;;;;;5095301;28;20140;-87
2022/04/30 04:49:34;;;;;;;106.88;56.13;;;8.90;99.90;;;;;;5071372;28;20049;-86
2022/04/30 04:52:27;;;;;;;99.85;53.67;;;8.90;99.90;;;;;;5099381;28;20052;-87
2022/04/30 04:55:17;;;;;;;104.55;57.22;;;8.80;99.90;;;;;;5083685;28;20040;-86
2022/04/30 04:58:12;;;;;;;115.50;59.75;;;8.90;99.90;;;;;;5105910;28;20055;-87
2022/04/30 05:01:01;;;;;;;109.18;58.90;;;8.90;99.90;;;;;;5076676;28;20063;-86
2022/04/30 05:03:50;;;;;;;118.20;59.97;;;8.80;99.90;;;;;;5101918;28;20477;-86
2022/04/30 05:06:42;;;;;;;110.38;58.08;;;8.80;99.90;;;;;;5100060;28;20097;-86
2022/04/30 05:09:31;;;;;;;113.28;57.63;;;8.80;99.90;;;;;;5079604;28;20063;-86
2022/04/30 05:12:18;;;;;;;114.53;59.58;;;8.90;99.90;;;;;;5078657;28;20062;-86
2022/04/30 05:15:08;;;;;;;108.78;58.40;;;8.90;99.90;;;;;;5078359;28;20430;-88
2022/04/30 05:17:56;;;;;;;102.97;58.90;;;8.90;99.90;;;;;;5091254;28;20067;-86
2022/04/30 05:20:44;;;;;;;106.35;56.33;;;8.90;99.90;;;;;;5079196;28;20086;-87
2022/04/30 05:23:33;;;;;;;107.43;55.47;;;8.80;99.90;;;;;;5090222;28;20070;-87
2022/04/30 05:26:20;;;;;;;104.82;55.03;;;8.80;99.90;;;;;;5093609;28;20044;-85
2022/04/30 05:29:10;;;;;;;110.43;56.65;;;8.80;99.90;;;;;;5083901;28;20044;-86
2022/04/30 05:36:42;;;;;;;105.07;55.08;;;8.90;99.90;;;;;;5083167;28;20115;-86
2022/04/30 06:00:18;;;;;;;99.68;51.55;;;8.90;99.90;;;;;;5087049;28;20111;-86
2022/04/30 06:03:07;;;;;;;95.07;51.45;;;9.10;99.90;;;;;;5083706;28;20036;-88
2022/04/30 06:05:58;;;;;;;99.07;51.70;;;9.20;99.90;;;;;;5088483;28;20055;-87
2022/04/30 06:12:53;;;;;;;79.95;45.70;;;9.50;99.90;;;;;;5095521;28;20027;-89
2022/04/30 06:15:42;;;;;;;76.72;44.72;;;9.50;99.90;;;;;;5093001;28;20044;-89
2022/04/30 06:18:32;;;;;;;73.90;43.95;;;9.60;99.90;;;;;;5121492;28;20029;-90
2022/04/30 06:21:22;;;;;;;69.28;42.30;;;9.70;99.90;;;;;;5104396;28;20093;-87
2022/04/30 06:24:10;;;;;;;68.25;41.25;;;9.80;99.90;;;;;;5101391;28;20040;-87
2022/04/30 06:27:08;;;;;;;66.47;40.88;;;9.80;99.90;;;;;;5103568;28;20570;-90
2022/04/30 06:29:55;;;;;;;69.25;41.08;;;9.80;99.90;;;;;;5107675;28;20048;-88
2022/04/30 06:59:12;;;;;;;75.10;42.85;;;9.60;99.90;;;;;;5019289;28;20045;-91
2022/04/30 07:02:30;;;;;;;72.82;42.20;;;9.60;99.90;;;;;;5019587;28;20189;-91
2022/04/30 07:05:19;;;;;;;71.43;42.88;;;9.60;99.90;;;;;;5009261;28;20080;-90
2022/04/30 07:25:38;;;;;;;68.50;41.45;;;9.60;99.90;;;;;;4949487;29;20035;-88
2022/04/30 07:34:28;;;;;;;77.63;44.28;;;9.60;99.90;;;;;;5593402;23;20470;-90
2022/04/30 07:37:21;;;;;;;67.13;43.08;;;9.70;99.90;;;;;;5040342;28;20060;-88
2022/04/30 07:40:09;;;;;;;68.38;42.15;;;9.70;99.90;;;;;;5035667;28;20041;-88
2022/04/30 07:42:57;;;;;;;71.60;43.20;;;9.70;99.90;;;;;;5022217;28;20152;-88
2022/04/30 07:45:47;;;;;;;71.78;42.22;;;9.70;99.90;;;;;;5036280;28;20045;-86
2022/04/30 07:48:36;;;;;;;69.53;40.47;;;9.60;99.90;;;;;;5028610;28;20077;-87
2022/04/30 07:51:34;;;;;;;73.68;42.35;;;9.70;99.90;;;;;;5045105;28;20053;-86
2022/04/30 07:54:22;;;;;;;60.80;39.28;;;9.60;99.90;;;;;;5029700;28;20045;-87
2022/04/30 07:57:09;;;;;;;66.05;39.72;;;9.60;99.90;;;;;;5048509;28;20119;-87
2022/04/30 07:59:56;;;;;;;64.97;40.78;;;9.50;99.90;;;;;;5047164;28;20037;-89
2022/04/30 08:02:44;;;;;;;69.28;40.13;;;9.60;99.90;;;;;;5041573;28;20122;-88
2022/04/30 08:05:32;;;;;;;60.42;39.60;;;9.50;99.90;;;;;;5045329;28;20045;-88
2022/04/30 08:08:19;;;;;;;69.57;41.75;;;9.60;99.90;;;;;;5036208;28;20073;-88
2022/04/30 08:11:09;;;;;;;65.07;41.25;;;9.60;99.90;;;;;;5028743;28;20085;-87
2022/04/30 08:13:56;;;;;;;70.13;42.75;;;9.70;99.90;;;;;;5033665;28;20062;-87
2022/04/30 08:16:47;;;;;;;67.05;40.47;;;9.80;99.90;;;;;;5041020;28;20104;-87
2022/04/30 08:19:35;;;;;;;65.32;40.40;;;9.80;99.90;;;;;;5045940;28;20049;-87
2022/04/30 08:22:28;;;;;;;65.60;41.10;;;9.80;99.90;;;;;;5030317;28;20601;-87
2022/04/30 08:25:15;;;;;;;62.17;38.67;;;9.80;99.90;;;;;;5035476;28;20128;-87
2022/04/30 08:28:03;;;;;;;64.28;40.30;;;9.80;99.90;;;;;;5034434;28;20045;-87
2022/04/30 08:30:53;;;;;;;66.68;39.22;;;9.80;99.90;;;;;;5024748;28;20104;-86
2022/04/30 08:33:48;;;;;;;65.88;37.47;;;9.90;99.90;;;;;;5014885;28;20045;-87
2022/04/30 08:36:38;;;;;;;61.72;39.03;;;9.90;99.90;;;;;;5051071;28;20052;-87
2022/04/30 08:39:25;;;;;;;59.13;37.20;;;9.90;99.90;;;;;;5034009;28;20056;-87
2022/04/30 08:42:14;;;;;;;49.17;32.65;;;9.90;99.90;;;;;;5033055;28;20111;-86
2022/04/30 08:45:03;;;;;;;47.80;31.83;;;9.90;99.90;;;;;;5033055;28;20362;-88
2022/04/30 08:47:53;;;;;;;52.42;34.47;;;10.00;99.90;;;;;;5038564;28;20053;-87
2022/04/30 08:50:44;;;;;;;48.97;33.45;;;10.00;99.90;;;;;;5054067;28;20057;-86
2022/04/30 08:53:32;;;;;;;47.28;32.13;;;10.00;99.90;;;;;;5044233;28;20054;-85
2022/04/30 08:56:22;;;;;;;48.80;32.92;;;10.10;99.90;;;;;;5027233;28;20407;-86
2022/04/30 08:59:12;;;;;;;49.40;32.95;;;10.30;99.90;;;;;;5031382;28;20057;-86
2022/04/30 09:02:09;;;;;;;50.22;31.83;;;10.40;99.90;;;;;;5036379;28;20137;-86
2022/04/30 09:04:56;;;;;;;47.63;32.15;;;10.60;99.90;;;;;;5035096;28;20049;-87
2022/04/30 09:07:53;;;;;;;45.05;29.52;;;10.90;99.90;;;;;;5033702;28;20049;-86
2022/04/30 09:10:42;;;;;;;36.95;26.60;;;11.00;99.90;;;;;;5035364;28;20057;-87
2022/04/30 09:13:29;;;;;;;27.33;21.52;;;11.30;99.90;;;;;;5033549;28;20054;-87
2022/04/30 09:16:20;;;;;;;28.10;20.38;;;11.20;99.90;;;;;;5034187;28;20064;-86
2022/04/30 09:19:08;;;;;;;25.10;19.88;;;11.40;99.90;;;;;;5007991;28;20037;-87
2022/04/30 09:22:00;;;;;;;25.77;19.63;;;11.40;99.90;;;;;;5031950;28;20086;-86
2022/04/30 09:24:48;;;;;;;22.45;16.88;;;11.50;99.90;;;;;;5034796;28;20037;-87
2022/04/30 09:27:56;;;;;;;21.98;17.25;;;11.70;99.90;;;;;;5034644;28;20331;-87
2022/04/30 09:30:43;;;;;;;28.20;19.08;;;11.80;99.90;;;;;;5013730;28;20050;-85
2022/04/30 09:33:30;;;;;;;21.05;16.77;;;12.00;99.90;;;;;;5018920;28;20316;-87
2022/04/30 09:39:32;;;;;;;19.95;15.95;;;12.30;99.90;;;;;;5035180;28;20045;-87
2022/04/30 09:42:19;;;;;;;22.02;16.60;;;12.50;99.90;;;;;;5042144;28;20370;-86
2022/04/30 09:45:22;;;;;;;21.65;16.25;;;12.90;99.90;;;;;;5032133;28;20493;-85
2022/04/30 09:54:42;;;;;;;13.98;11.02;;;14.10;99.90;;;;;;4973503;28;20042;-86
2022/04/30 09:57:36;;;;;;;14.73;11.98;;;14.60;99.90;;;;;;4975129;28;20356;-86
2022/04/30 10:00:23;;;;;;;12.65;10.57;;;15.00;99.90;;;;;;5032957;28;20056;-86
2022/04/30 10:03:11;;;;;;;11.45;10.23;;;15.20;99.90;;;;;;5032753;28;20053;-86
2022/04/30 10:06:05;;;;;;;15.15;11.10;;;15.20;99.90;;;;;;5034240;28;20063;-86
2022/04/30 10:08:56;;;;;;;13.52;10.85;;;15.10;99.90;;;;;;5022714;28;20060;-85
2022/04/30 10:12:11;;;;;;;11.18;9.75;;;15.00;99.90;;;;;;5052993;28;21102;-86
2022/04/30 10:15:28;;;;;;;12.00;9.98;;;14.50;99.90;;;;;;5027117;28;20124;-86
2022/04/30 10:18:19;;;;;;;9.80;7.82;;;14.30;99.90;;;;;;5029583;28;20045;-84
2022/04/30 10:21:17;;;;;;;6.85;6.15;;;14.40;99.90;;;;;;5043097;28;20126;-84
2022/04/30 10:24:07;;;;;;;7.22;6.43;;;14.30;99.90;;;;;;5004740;28;20041;-85
2022/04/30 10:27:01;;;;;;;7.82;5.40;;;14.40;99.90;;;;;;5035050;28;20069;-85
2022/04/30 10:29:59;;;;;;;6.30;5.53;;;14.60;99.90;;;;;;5034655;28;20056;-85
2022/04/30 10:32:59;;;;;;;6.28;5.18;;;14.80;99.90;;;;;;5033982;28;20042;-86
2022/04/30 10:35:47;;;;;;;5.80;5.18;;;15.00;99.90;;;;;;5032856;28;20049;-86
2022/04/30 10:38:35;;;;;;;6.55;5.30;;;15.20;99.90;;;;;;5018402;28;20057;-85
2022/04/30 10:41:22;;;;;;;4.78;4.28;;;15.50;99.90;;;;;;5019851;28;20069;-86
2022/04/30 10:44:12;;;;;;;6.15;4.50;;;16.40;99.90;;;;;;5034167;28;20049;-86
2022/04/30 10:47:12;;;;;;;3.55;3.25;;;17.10;99.90;;;;;;5031174;28;20057;-87
2022/04/30 10:50:01;;;;;;;5.50;3.33;;;17.70;99.90;;;;;;5021767;28;20369;-85
2022/04/30 10:52:54;;;;;;;4.05;3.67;;;17.90;99.90;;;;;;5017633;28;20038;-87
2022/04/30 10:55:42;;;;;;;3.60;3.13;;;18.60;99.90;;;;;;5034678;28;20064;-86
2022/04/30 10:58:34;;;;;;;3.88;3.55;;;18.70;99.90;;;;;;5017673;28;20343;-86
2022/04/30 11:01:24;;;;;;;4.35;3.90;;;18.90;96.60;;;;;;5014752;28;20391;-85
2022/04/30 11:04:19;;;;;;;4.30;3.90;;;18.50;99.90;;;;;;5036277;28;20124;-84
2022/04/30 11:07:09;;;;;;;6.05;4.88;;;18.10;96.20;;;;;;5029656;28;20042;-83
2022/04/30 11:09:56;;;;;;;6.25;5.55;;;17.40;99.90;;;;;;5031950;28;20050;-86
2022/04/30 11:12:44;;;;;;;6.75;5.97;;;16.10;99.90;;;;;;5037662;28;20053;-86
2022/04/30 11:15:32;;;;;;;5.82;5.05;;;15.10;99.90;;;;;;5041973;28;20397;-84
2022/04/30 11:18:19;;;;;;;6.90;5.75;;;14.70;99.90;;;;;;5044638;28;20042;-84
2022/04/30 11:21:09;;;;;;;6.20;5.13;;;14.00;99.90;;;;;;5034694;28;20046;-84
2022/04/30 11:23:58;;;;;;;8.85;6.07;;;13.80;99.90;;;;;;5025324;28;20131;-84
2022/04/30 11:26:46;;;;;;;6.65;5.95;;;13.60;99.90;;;;;;5035408;28;20045;-82
2022/04/30 11:29:36;;;;;;;6.45;5.85;;;13.20;99.90;;;;;;5022124;28;20112;-84
2022/04/30 11:32:29;;;;;;;8.65;7.22;;;12.90;99.90;;;;;;5038553;28;20121;-84
2022/04/30 11:35:19;;;;;;;6.47;5.88;;;12.80;99.90;;;;;;5016206;28;20058;-84
2022/04/30 11:38:10;;;;;;;7.72;6.22;;;12.80;99.90;;;;;;5031140;28;20056;-83
2022/04/30 11:41:10;;;;;;;6.72;6.03;;;13.00;99.90;;;;;;5027842;28;20056;-84
2022/04/30 11:43:59;;;;;;;5.47;4.57;;;13.20;99.90;;;;;;5031285;28;20062;-82
2022/04/30 11:46:48;;;;;;;5.40;4.72;;;13.00;99.90;;;;;;5027398;28;20049;-84
2022/04/30 11:49:36;;;;;;;5.75;4.35;;;13.30;99.90;;;;;;5023411;28;20049;-83
2022/04/30 11:52:36;;;;;;;5.00;4.40;;;13.50;99.90;;;;;;5033597;28;20153;-85
2022/04/30 11:55:23;;;;;;;3.72;3.28;;;14.10;99.90;;;;;;5035230;28;20057;-82
2022/04/30 11:58:11;;;;;;;4.30;3.53;;;14.80;99.90;;;;;;5029700;28;20405;-84
2022/04/30 12:01:27;;;;;;;3.28;2.92;;;15.90;99.90;;;;;;5034675;28;20079;-85
2022/04/30 12:04:15;;;;;;;3.78;3.47;;;18.30;99.90;;;;;;5018858;28;20557;-85
2022/04/30 12:07:07;;;;;;;3.20;2.90;;;20.20;88.50;;;;;;5033548;28;20064;-85
2022/04/30 12:09:55;;;;;;;3.42;3.08;;;20.70;72.60;;;;;;5037115;28;20398;-85
2022/04/30 12:12:42;;;;;;;4.13;3.72;;;20.10;73.40;;;;;;5034556;28;20052;-84
2022/04/30 12:15:33;;;;;;;4.90;3.97;;;20.60;73.50;;;;;;5034642;28;20126;-86
2022/04/30 12:24:51;;;;;;;7.18;5.50;;;16.90;91.10;;;;;;5035660;28;20454;-81
2022/04/30 12:27:40;;;;;;;6.13;5.53;;;15.80;93.40;;;;;;5020473;28;20115;-82
2022/04/30 12:30:54;;;;;;;7.72;5.80;;;15.00;96.20;;;;;;5034551;28;20187;-81
2022/04/30 12:33:52;;;;;;;6.40;5.57;;;14.40;95.70;;;;;;5026493;28;20099;-85
2022/04/30 12:36:50;;;;;;;7.82;6.50;;;14.00;99.90;;;;;;5034169;28;20041;-82
2022/04/30 12:39:38;;;;;;;7.57;6.65;;;13.80;99.90;;;;;;5019466;28;20052;-82
2022/04/30 12:42:25;;;;;;;7.25;6.55;;;13.90;99.90;;;;;;5036719;28;20486;-84
2022/04/30 12:45:14;;;;;;;6.88;6.00;;;14.00;99.90;;;;;;5033777;28;20048;-83
2022/04/30 12:48:04;;;;;;;7.38;5.43;;;15.00;99.90;;;;;;5031535;28;20049;-83
2022/04/30 12:50:52;;;;;;;6.65;5.55;;;15.00;99.90;;;;;;5032496;28;20462;-82
2022/04/30 12:53:39;;;;;;;7.57;5.57;;;14.80;99.90;;;;;;5031321;28;20045;-86
2022/04/30 12:56:27;;;;;;;6.53;5.90;;;14.60;99.90;;;;;;5035268;28;20053;-86
2022/04/30 12:59:16;;;;;;;5.63;4.60;;;14.60;99.90;;;;;;5029745;28;20702;-83
2022/04/30 13:02:07;;;;;;;4.90;4.40;;;15.20;99.90;;;;;;5006881;28;20050;-85
2022/04/30 13:04:56;;;;;;;5.43;3.78;;;15.90;97.50;;;;;;5032628;28;20041;-85
2022/04/30 13:07:44;;;;;;;5.32;4.55;;;16.20;97.20;;;;;;5032673;28;20053;-84
2022/04/30 13:13:43;;;;;;;4.88;3.85;;;16.50;95.20;;;;;;5034349;28;20045;-86
2022/04/30 13:16:31;;;;;;;9.15;4.00;;;15.70;95.70;;;;;;5031859;28;20054;-83
2022/04/30 13:19:18;;;;;;;5.13;4.53;;;15.20;98.80;;;;;;5029824;28;20068;-84
2022/04/30 13:22:06;;;;;;;7.97;4.20;;;14.80;99.90;;;;;;5030716;28;20057;-85
2022/04/30 13:24:53;;;;;;;6.72;4.80;;;14.70;99.90;;;;;;5035771;28;20570;-85
2022/04/30 13:27:41;;;;;;;4.47;4.07;;;14.30;99.70;;;;;;5026166;28;20060;-83
2022/04/30 13:30:32;;;;;;;6.18;4.70;;;14.40;99.90;;;;;;5025614;28;20045;-84
2022/04/30 13:33:19;;;;;;;6.78;5.43;;;14.30;99.90;;;;;;5016996;28;20107;-84
2022/04/30 13:40:23;;;;;;;6.35;5.50;;;15.30;99.90;;;;;;5043240;28;20045;-82
2022/04/30 13:51:55;;;;;;;6.25;5.53;;;19.00;79.30;;;;;;4996763;28;20140;-83
2022/04/30 15:07:47;;;;;;;16.05;11.85;;;12.10;99.90;;;;;;5008423;28;20175;-87
2022/04/30 15:10:35;;;;;;;14.63;11.45;;;11.80;99.90;;;;;;4997792;28;20135;-87
2022/04/30 15:13:26;;;;;;;12.50;10.05;;;11.80;99.90;;;;;;4994591;28;20069;-87
2022/04/30 15:16:14;;;;;;;13.32;10.50;;;11.80;99.90;;;;;;4994738;28;20416;-87
2022/04/30 15:19:10;;;;;;;12.35;10.05;;;11.70;99.90;;;;;;4986940;28;20034;-87
2022/04/30 15:22:00;;;;;;;12.73;10.52;;;11.70;99.90;;;;;;4999287;28;20052;-86
2022/04/30 15:24:52;;;;;;;18.30;10.00;;;11.70;99.90;;;;;;4999318;28;20042;-88
2022/04/30 15:27:42;;;;;;;14.38;10.50;;;11.80;99.90;;;;;;4998513;28;20085;-87
2022/04/30 15:30:32;;;;;;;15.48;9.98;;;11.90;99.90;;;;;;4998777;28;20053;-88
2022/04/30 15:33:19;;;;;;;14.73;10.95;;;11.80;99.90;;;;;;4995103;28;20052;-87
2022/04/30 15:36:26;;;;;;;;;;;;;;;;;;;;;
2022/04/30 15:39:33;;;;;;;12.88;11.20;;;12.00;99.90;;;;;;5010698;28;20426;-89
2022/04/30 15:42:25;;;;;;;14.27;10.18;;;12.00;99.90;;;;;;5009927;28;20053;-88
2022/04/30 15:45:15;;;;;;;12.45;9.30;;;12.20;99.90;;;;;;5018651;28;20038;-86
2022/04/30 15:51:32;;;;;;;12.07;9.75;;;12.40;99.90;;;;;;5006050;28;20069;-89
2022/04/30 15:54:31;;;;;;;13.15;9.55;;;12.40;99.90;;;;;;5004919;28;20046;-87
2022/04/30 15:57:19;;;;;;;12.65;10.65;;;12.40;99.90;;;;;;5004730;28;20038;-88
2022/04/30 16:00:08;;;;;;;12.23;10.52;;;12.20;99.90;;;;;;4996907;28;20038;-89
2022/04/30 16:02:56;;;;;;;12.02;9.85;;;12.10;99.90;;;;;;5000237;28;20042;-88
2022/04/30 16:05:44;;;;;;;11.70;9.73;;;12.10;99.90;;;;;;5018578;28;20041;-87
2022/04/30 16:08:32;;;;;;;10.00;8.20;;;12.40;99.90;;;;;;4997001;28;20478;-84
2022/04/30 16:11:22;;;;;;;15.57;10.60;;;12.60;99.90;;;;;;5011486;28;20375;-86
2022/04/30 16:14:09;;;;;;;13.70;9.68;;;12.80;99.90;;;;;;5001380;28;20042;-85
2022/04/30 16:17:01;;;;;;;13.43;9.75;;;13.00;99.90;;;;;;5015537;28;20114;-87
2022/04/30 16:19:51;;;;;;;11.70;9.27;;;13.10;99.90;;;;;;5005558;28;20050;-85
2022/04/30 16:22:43;;;;;;;13.30;8.70;;;12.90;99.90;;;;;;5000626;28;20062;-84
2022/04/30 16:25:31;;;;;;;;;;;12.90;99.90;;;;;;4998283;28;20053;-86
2022/04/30 16:28:18;;;;;;;10.95;8.10;;;13.00;99.90;;;;;;4991802;28;19922;-85
2022/04/30 16:31:13;;;;;;;10.60;8.43;;;13.00;99.90;;;;;;4993483;28;20054;-86
2022/04/30 16:34:00;;;;;;;12.65;8.73;;;13.00;99.90;;;;;;5020221;28;20530;-86
2022/04/30 16:36:49;;;;;;;11.40;9.85;;;12.90;99.90;;;;;;5009597;28;20249;-86
2022/04/30 16:39:46;;;;;;;12.88;10.25;;;12.80;99.90;;;;;;5003264;28;20425;-84
2022/04/30 16:42:39;;;;;;;11.23;8.60;;;12.50;99.90;;;;;;5011937;28;20196;-84
2022/04/30 16:45:27;;;;;;;17.13;9.57;;;12.40;99.90;;;;;;4995727;28;20090;-84
2022/04/30 16:48:14;;;;;;;11.68;10.13;;;12.30;99.90;;;;;;5015324;28;20136;-83
2022/04/30 16:54:10;;;;;;;13.73;10.60;;;12.00;99.90;;;;;;5017259;28;20046;-86
2022/04/30 16:57:06;;;;;;;12.63;9.73;;;12.00;99.90;;;;;;5000577;28;20046;-86
2022/04/30 17:00:01;;;;;;;14.93;10.32;;;12.00;99.90;;;;;;5003559;28;20313;-88
2022/04/30 17:02:52;;;;;;;12.60;9.85;;;11.90;99.90;;;;;;5017706;28;20046;-87
2022/04/30 17:05:40;;;;;;;14.52;9.88;;;11.90;99.90;;;;;;5001871;28;20361;-85
2022/04/30 17:08:28;;;;;;;14.32;9.90;;;11.90;99.90;;;;;;4996113;28;20196;-88
2022/04/30 17:11:16;;;;;;;11.15;8.88;;;11.60;99.90;;;;;;4992217;28;20053;-86
2022/04/30 17:14:03;;;;;;;11.20;9.32;;;11.30;99.90;;;;;;4985581;28;20042;-86
2022/04/30 17:16:51;;;;;;;11.80;9.50;;;11.10;99.90;;;;;;5005117;28;20436;-86
2022/04/30 17:19:38;;;;;;;13.27;10.50;;;11.00;99.90;;;;;;5003149;28;20428;-83
2022/04/30 17:22:29;;;;;;;11.20;9.57;;;10.90;99.90;;;;;;5012216;28;20062;-86
2022/04/30 17:25:18;;;;;;;14.13;10.13;;;10.70;99.90;;;;;;5014882;28;20065;-84
2022/04/30 17:28:06;;;;;;;16.25;11.45;;;10.50;99.90;;;;;;5022128;28;20372;-84
2022/04/30 17:40:19;;;;;;;17.73;13.05;;;10.10;99.90;;;;;;5014647;28;20061;-86
2022/04/30 17:43:18;;;;;;;17.55;13.60;;;9.90;99.90;;;;;;5012344;28;20153;-86
2022/04/30 17:46:07;;;;;;;17.80;13.02;;;9.80;99.90;;;;;;5013730;28;20653;-85
2022/04/30 17:48:57;;;;;;;20.20;14.50;;;9.70;99.90;;;;;;5007664;28;20084;-87
2022/04/30 17:51:48;;;;;;;21.42;14.73;;;9.70;99.90;;;;;;5008146;28;20113;-85
2022/04/30 17:54:36;;;;;;;20.20;13.90;;;9.70;99.90;;;;;;5001135;28;20037;-85
2022/04/30 17:57:25;;;;;;;21.67;16.58;;;9.60;99.90;;;;;;4998044;28;20385;-84
2022/04/30 18:00:16;;;;;;;25.65;19.15;;;9.50;99.90;;;;;;5017128;28;20042;-83
2022/04/30 18:03:07;;;;;;;29.67;18.58;;;9.40;99.90;;;;;;5013288;28;20050;-84
2022/04/30 18:06:00;;;;;;;23.15;18.25;;;9.30;99.90;;;;;;5012414;28;21097;-84
2022/04/30 18:09:00;;;;;;;28.00;19.47;;;9.30;99.90;;;;;;4999669;28;20049;-85
2022/04/30 18:11:51;;;;;;;26.35;18.77;;;9.20;99.90;;;;;;5010719;28;20140;-84
2022/04/30 18:14:42;;;;;;;24.60;18.40;;;9.10;99.90;;;;;;5013172;28;20389;-86
2022/04/30 18:17:36;;;;;;;26.70;20.08;;;9.10;99.90;;;;;;5011473;28;20482;-86
2022/04/30 18:20:26;;;;;;;26.92;19.08;;;9.00;99.90;;;;;;5015326;28;20057;-86
2022/04/30 18:23:14;;;;;;;29.40;20.80;;;9.00;99.90;;;;;;5013476;28;20530;-85
2022/04/30 18:26:04;;;;;;;30.08;20.23;;;8.90;99.90;;;;;;5009922;28;20050;-85
2022/04/30 18:28:53;;;;;;;27.52;19.73;;;8.80;99.90;;;;;;4992821;28;20038;-87